sensor_id;sensor_type;location;lat;lon;timestamp;P1;durP1;ratioP1;P2;durP2;ratioP2
13090;SDS011;6611;52.604;13.438;2023-04-15T00:02:27;22.67;;;12.67;;
13090;SDS011;6611;52.604;13.438;2023-04-15T00:07:28;21.33;;;13.53;;
13090;SDS011;6611;52.604;13.438;2023-04-15T00:12:30;25.20;;;14.40;;
13090;SDS011;6611;52.604;13.438;2023-04-15T00:17:33;26.13;;;13.83;;
13090;SDS011;6611;52.604;13.438;2023-04-15T00:22:37;22.50;;;14.33;;
13090;SDS011;6611;52.604;13.438;2023-04-15T00:27:39;27.10;;;14.83;;
13090;SDS011;6611;52.604;13.438;2023-04-15T00:32:42;28.07;;;15.70;;
13090;SDS011;6611;52.604;13.438;2023-04-15T00:37:44;27.77;;;15.87;;
13090;SDS011;6611;52.604;13.438;2023-04-15T00:42:46;27.77;;;15.87;;
13090;SDS011;6611;52.604;13.438;2023-04-15T00:47:49;27.80;;;16.23;;
13090;SDS011;6611;52.604;13.438;2023-04-15T00:52:51;30.80;;;16.97;;
13090;SDS011;6611;52.604;13.438;2023-04-15T00:57:53;29.13;;;16.27;;
13090;SDS011;6611;52.604;13.438;2023-04-15T01:02:56;32.10;;;17.00;;
13090;SDS011;6611;52.604;13.438;2023-04-15T01:07:58;30.07;;;15.37;;
13090;SDS011;6611;52.604;13.438;2023-04-15T01:13:00;29.57;;;16.37;;
13090;SDS011;6611;52.604;13.438;2023-04-15T01:18:04;28.40;;;17.00;;
13090;SDS011;6611;52.604;13.438;2023-04-15T01:23:06;31.67;;;16.60;;
13090;SDS011;6611;52.604;13.438;2023-04-15T01:28:09;29.80;;;17.17;;
13090;SDS011;6611;52.604;13.438;2023-04-15T01:33:11;29.17;;;17.20;;
13090;SDS011;6611;52.604;13.438;2023-04-15T01:38:13;33.60;;;16.00;;
13090;SDS011;6611;52.604;13.438;2023-04-15T01:43:16;27.93;;;16.63;;
13090;SDS011;6611;52.604;13.438;2023-04-15T01:48:18;29.83;;;15.13;;
13090;SDS011;6611;52.604;13.438;2023-04-15T01:53:20;27.90;;;15.93;;
13090;SDS011;6611;52.604;13.438;2023-04-15T01:58:23;33.47;;;16.73;;
13090;SDS011;6611;52.604;13.438;2023-04-15T02:03:25;27.97;;;16.30;;
13090;SDS011;6611;52.604;13.438;2023-04-15T02:08:26;28.33;;;16.33;;
13090;SDS011;6611;52.604;13.438;2023-04-15T02:13:30;26.67;;;16.50;;
13090;SDS011;6611;52.604;13.438;2023-04-15T02:18:31;32.97;;;16.93;;
13090;SDS011;6611;52.604;13.438;2023-04-15T02:23:33;27.90;;;15.37;;
13090;SDS011;6611;52.604;13.438;2023-04-15T02:28:36;29.37;;;15.80;;
13090;SDS011;6611;52.604;13.438;2023-04-15T02:33:38;25.83;;;14.97;;
13090;SDS011;6611;52.604;13.438;2023-04-15T02:38:39;31.77;;;15.63;;
13090;SDS011;6611;52.604;13.438;2023-04-15T02:43:43;30.67;;;16.13;;
13090;SDS011;6611;52.604;13.438;2023-04-15T02:48:45;29.30;;;15.33;;
13090;SDS011;6611;52.604;13.438;2023-04-15T02:53:46;29.00;;;15.30;;
13090;SDS011;6611;52.604;13.438;2023-04-15T02:58:50;29.53;;;16.03;;
13090;SDS011;6611;52.604;13.438;2023-04-15T03:03:55;30.43;;;16.57;;
13090;SDS011;6611;52.604;13.438;2023-04-15T03:08:56;28.30;;;16.70;;
13090;SDS011;6611;52.604;13.438;2023-04-15T03:14:00;29.47;;;15.90;;
13090;SDS011;6611;52.604;13.438;2023-04-15T03:19:02;28.93;;;16.57;;
13090;SDS011;6611;52.604;13.438;2023-04-15T03:24:04;29.77;;;15.43;;
13090;SDS011;6611;52.604;13.438;2023-04-15T03:29:07;31.30;;;17.10;;
13090;SDS011;6611;52.604;13.438;2023-04-15T03:34:09;29.13;;;16.07;;
13090;SDS011;6611;52.604;13.438;2023-04-15T03:39:10;27.37;;;15.50;;
13090;SDS011;6611;52.604;13.438;2023-04-15T03:44:13;30.20;;;15.97;;
13090;SDS011;6611;52.604;13.438;2023-04-15T03:49:15;28.60;;;15.80;;
13090;SDS011;6611;52.604;13.438;2023-04-15T03:54:18;27.13;;;15.80;;
13090;SDS011;6611;52.604;13.438;2023-04-15T03:59:21;26.43;;;14.40;;
13090;SDS011;6611;52.604;13.438;2023-04-15T04:04:22;26.83;;;14.57;;
13090;SDS011;6611;52.604;13.438;2023-04-15T04:09:24;27.97;;;14.77;;
13090;SDS011;6611;52.604;13.438;2023-04-15T04:14:28;25.47;;;14.63;;
13090;SDS011;6611;52.604;13.438;2023-04-15T04:19:29;26.70;;;14.80;;
13090;SDS011;6611;52.604;13.438;2023-04-15T04:24:31;25.13;;;15.33;;
13090;SDS011;6611;52.604;13.438;2023-04-15T04:29:34;22.83;;;14.40;;
13090;SDS011;6611;52.604;13.438;2023-04-15T04:34:36;27.10;;;14.70;;
13090;SDS011;6611;52.604;13.438;2023-04-15T04:39:38;21.13;;;13.90;;
13090;SDS011;6611;52.604;13.438;2023-04-15T04:44:41;23.90;;;14.23;;
13090;SDS011;6611;52.604;13.438;2023-04-15T04:49:42;20.23;;;12.77;;
13090;SDS011;6611;52.604;13.438;2023-04-15T04:54:44;22.67;;;14.00;;
13090;SDS011;6611;52.604;13.438;2023-04-15T04:59:47;26.97;;;14.60;;
13090;SDS011;6611;52.604;13.438;2023-04-15T05:04:49;24.90;;;14.70;;
13090;SDS011;6611;52.604;13.438;2023-04-15T05:09:53;23.07;;;13.20;;
13090;SDS011;6611;52.604;13.438;2023-04-15T05:14:56;20.67;;;13.47;;
13090;SDS011;6611;52.604;13.438;2023-04-15T05:19:58;22.73;;;14.47;;
13090;SDS011;6611;52.604;13.438;2023-04-15T05:24:59;21.57;;;13.37;;
13090;SDS011;6611;52.604;13.438;2023-04-15T05:30:03;21.67;;;13.40;;
13090;SDS011;6611;52.604;13.438;2023-04-15T05:35:06;20.57;;;13.10;;
13090;SDS011;6611;52.604;13.438;2023-04-15T05:40:08;21.73;;;13.23;;
13090;SDS011;6611;52.604;13.438;2023-04-15T05:45:12;22.60;;;13.17;;
13090;SDS011;6611;52.604;13.438;2023-04-15T05:50:13;20.73;;;12.63;;
13090;SDS011;6611;52.604;13.438;2023-04-15T05:55:15;16.80;;;11.67;;
13090;SDS011;6611;52.604;13.438;2023-04-15T06:00:18;18.43;;;12.03;;
13090;SDS011;6611;52.604;13.438;2023-04-15T06:05:20;16.43;;;11.30;;
13090;SDS011;6611;52.604;13.438;2023-04-15T06:10:22;20.43;;;12.53;;
13090;SDS011;6611;52.604;13.438;2023-04-15T06:15:25;16.37;;;11.10;;
13090;SDS011;6611;52.604;13.438;2023-04-15T06:20:26;15.73;;;10.77;;
13090;SDS011;6611;52.604;13.438;2023-04-15T06:25:28;14.57;;;10.30;;
13090;SDS011;6611;52.604;13.438;2023-04-15T06:30:31;14.23;;;10.20;;
13090;SDS011;6611;52.604;13.438;2023-04-15T06:35:33;13.63;;;9.77;;
13090;SDS011;6611;52.604;13.438;2023-04-15T06:40:34;12.23;;;8.93;;
13090;SDS011;6611;52.604;13.438;2023-04-15T06:45:37;11.57;;;8.33;;
13090;SDS011;6611;52.604;13.438;2023-04-15T06:50:39;11.67;;;8.53;;
13090;SDS011;6611;52.604;13.438;2023-04-15T06:55:41;11.03;;;8.30;;
13090;SDS011;6611;52.604;13.438;2023-04-15T07:00:44;10.93;;;7.67;;
13090;SDS011;6611;52.604;13.438;2023-04-15T07:05:46;9.67;;;7.73;;
13090;SDS011;6611;52.604;13.438;2023-04-15T07:10:47;10.80;;;8.27;;
13090;SDS011;6611;52.604;13.438;2023-04-15T07:15:50;10.67;;;7.93;;
13090;SDS011;6611;52.604;13.438;2023-04-15T07:20:52;10.87;;;7.33;;
13090;SDS011;6611;52.604;13.438;2023-04-15T07:25:54;10.03;;;7.40;;
13090;SDS011;6611;52.604;13.438;2023-04-15T07:30:57;10.77;;;8.27;;
13090;SDS011;6611;52.604;13.438;2023-04-15T07:35:59;11.57;;;8.20;;
13090;SDS011;6611;52.604;13.438;2023-04-15T07:41:01;12.63;;;8.83;;
13090;SDS011;6611;52.604;13.438;2023-04-15T07:46:05;13.43;;;8.53;;
13090;SDS011;6611;52.604;13.438;2023-04-15T07:51:07;13.13;;;7.97;;
13090;SDS011;6611;52.604;13.438;2023-04-15T07:56:09;10.60;;;8.37;;
13090;SDS011;6611;52.604;13.438;2023-04-15T08:01:13;11.47;;;8.27;;
13090;SDS011;6611;52.604;13.438;2023-04-15T08:06:15;14.00;;;8.00;;
13090;SDS011;6611;52.604;13.438;2023-04-15T08:11:16;10.83;;;8.10;;
13090;SDS011;6611;52.604;13.438;2023-04-15T08:16:20;11.97;;;8.30;;
13090;SDS011;6611;52.604;13.438;2023-04-15T08:21:23;14.53;;;9.23;;
13090;SDS011;6611;52.604;13.438;2023-04-15T08:26:26;11.87;;;9.40;;
13090;SDS011;6611;52.604;13.438;2023-04-15T08:31:29;11.07;;;8.33;;
13090;SDS011;6611;52.604;13.438;2023-04-15T08:36:31;13.47;;;8.50;;
13090;SDS011;6611;52.604;13.438;2023-04-15T08:41:33;11.33;;;8.20;;
13090;SDS011;6611;52.604;13.438;2023-04-15T08:46:42;11.80;;;8.43;;
13090;SDS011;6611;52.604;13.438;2023-04-15T08:51:43;11.80;;;8.50;;
13090;SDS011;6611;52.604;13.438;2023-04-15T08:56:45;12.83;;;9.27;;
13090;SDS011;6611;52.604;13.438;2023-04-15T09:01:49;12.23;;;9.17;;
13090;SDS011;6611;52.604;13.438;2023-04-15T09:06:52;12.03;;;8.57;;
13090;SDS011;6611;52.604;13.438;2023-04-15T09:11:53;11.17;;;8.70;;
13090;SDS011;6611;52.604;13.438;2023-04-15T09:16:57;10.40;;;8.37;;
13090;SDS011;6611;52.604;13.438;2023-04-15T09:22:00;11.60;;;8.47;;
13090;SDS011;6611;52.604;13.438;2023-04-15T09:27:02;11.47;;;7.70;;
13090;SDS011;6611;52.604;13.438;2023-04-15T09:32:10;11.73;;;7.90;;
13090;SDS011;6611;52.604;13.438;2023-04-15T09:37:12;12.30;;;8.23;;
13090;SDS011;6611;52.604;13.438;2023-04-15T09:42:17;10.67;;;8.50;;
13090;SDS011;6611;52.604;13.438;2023-04-15T09:47:27;12.30;;;8.87;;
13090;SDS011;6611;52.604;13.438;2023-04-15T09:52:30;10.57;;;8.17;;
13090;SDS011;6611;52.604;13.438;2023-04-15T09:57:33;10.80;;;7.73;;
13090;SDS011;6611;52.604;13.438;2023-04-15T10:02:37;11.17;;;8.63;;
13090;SDS011;6611;52.604;13.438;2023-04-15T10:07:39;9.67;;;8.07;;
13090;SDS011;6611;52.604;13.438;2023-04-15T10:12:42;12.03;;;8.03;;
13090;SDS011;6611;52.604;13.438;2023-04-15T10:17:46;9.80;;;8.20;;
13090;SDS011;6611;52.604;13.438;2023-04-15T10:22:51;10.83;;;8.07;;
13090;SDS011;6611;52.604;13.438;2023-04-15T10:27:53;11.60;;;8.07;;
13090;SDS011;6611;52.604;13.438;2023-04-15T10:32:58;11.03;;;8.47;;
13090;SDS011;6611;52.604;13.438;2023-04-15T10:38:00;11.43;;;8.27;;
13090;SDS011;6611;52.604;13.438;2023-04-15T10:43:02;12.10;;;8.57;;
13090;SDS011;6611;52.604;13.438;2023-04-15T10:48:06;12.03;;;8.73;;
13090;SDS011;6611;52.604;13.438;2023-04-15T10:53:09;12.07;;;8.43;;
13090;SDS011;6611;52.604;13.438;2023-04-15T10:58:11;11.83;;;7.77;;
13090;SDS011;6611;52.604;13.438;2023-04-15T11:03:15;11.27;;;8.03;;
13090;SDS011;6611;52.604;13.438;2023-04-15T11:08:17;9.77;;;8.17;;
13090;SDS011;6611;52.604;13.438;2023-04-15T11:13:23;10.73;;;8.13;;
13090;SDS011;6611;52.604;13.438;2023-04-15T11:18:30;10.50;;;8.40;;
13090;SDS011;6611;52.604;13.438;2023-04-15T11:23:34;11.60;;;7.80;;
13090;SDS011;6611;52.604;13.438;2023-04-15T11:28:38;12.40;;;7.90;;
13090;SDS011;6611;52.604;13.438;2023-04-15T11:33:46;12.47;;;8.13;;
13090;SDS011;6611;52.604;13.438;2023-04-15T11:38:56;10.07;;;7.80;;
13090;SDS011;6611;52.604;13.438;2023-04-15T11:43:59;10.77;;;8.10;;
13090;SDS011;6611;52.604;13.438;2023-04-15T11:49:02;11.00;;;8.13;;
13090;SDS011;6611;52.604;13.438;2023-04-15T11:54:04;9.73;;;7.43;;
13090;SDS011;6611;52.604;13.438;2023-04-15T11:59:05;11.60;;;8.27;;
13090;SDS011;6611;52.604;13.438;2023-04-15T12:04:11;25.23;;;15.17;;
13090;SDS011;6611;52.604;13.438;2023-04-15T12:09:14;16.47;;;10.60;;
13090;SDS011;6611;52.604;13.438;2023-04-15T12:14:21;18.73;;;10.73;;
13090;SDS011;6611;52.604;13.438;2023-04-15T12:19:29;13.23;;;8.77;;
13090;SDS011;6611;52.604;13.438;2023-04-15T12:24:31;12.33;;;8.33;;
13090;SDS011;6611;52.604;13.438;2023-04-15T12:29:35;11.07;;;8.77;;
13090;SDS011;6611;52.604;13.438;2023-04-15T12:34:40;13.83;;;9.47;;
13090;SDS011;6611;52.604;13.438;2023-04-15T12:39:46;14.10;;;9.10;;
13090;SDS011;6611;52.604;13.438;2023-04-15T12:44:49;11.27;;;8.43;;
13090;SDS011;6611;52.604;13.438;2023-04-15T12:49:52;10.93;;;7.67;;
13090;SDS011;6611;52.604;13.438;2023-04-15T12:54:53;11.63;;;8.67;;
13090;SDS011;6611;52.604;13.438;2023-04-15T12:59:55;11.07;;;9.13;;
13090;SDS011;6611;52.604;13.438;2023-04-15T13:04:58;9.87;;;7.50;;
13090;SDS011;6611;52.604;13.438;2023-04-15T13:10:00;10.10;;;7.50;;
13090;SDS011;6611;52.604;13.438;2023-04-15T13:15:01;8.23;;;6.67;;
13090;SDS011;6611;52.604;13.438;2023-04-15T13:20:05;8.50;;;6.80;;
13090;SDS011;6611;52.604;13.438;2023-04-15T13:25:08;9.93;;;8.13;;
13090;SDS011;6611;52.604;13.438;2023-04-15T13:30:10;11.40;;;8.30;;
13090;SDS011;6611;52.604;13.438;2023-04-15T13:35:13;17.30;;;11.90;;
13090;SDS011;6611;52.604;13.438;2023-04-15T13:40:15;16.03;;;11.10;;
13090;SDS011;6611;52.604;13.438;2023-04-15T13:45:17;14.53;;;9.00;;
13090;SDS011;6611;52.604;13.438;2023-04-15T13:50:20;15.37;;;10.17;;
13090;SDS011;6611;52.604;13.438;2023-04-15T13:55:21;18.87;;;10.73;;
13090;SDS011;6611;52.604;13.438;2023-04-15T14:00:23;11.60;;;8.57;;
13090;SDS011;6611;52.604;13.438;2023-04-15T14:05:26;10.53;;;7.73;;
13090;SDS011;6611;52.604;13.438;2023-04-15T14:10:28;9.00;;;7.50;;
13090;SDS011;6611;52.604;13.438;2023-04-15T14:15:30;10.83;;;7.53;;
13090;SDS011;6611;52.604;13.438;2023-04-15T14:20:33;8.83;;;6.83;;
13090;SDS011;6611;52.604;13.438;2023-04-15T14:25:35;8.77;;;6.37;;
13090;SDS011;6611;52.604;13.438;2023-04-15T14:30:38;9.03;;;6.57;;
13090;SDS011;6611;52.604;13.438;2023-04-15T14:35:41;7.13;;;5.80;;
13090;SDS011;6611;52.604;13.438;2023-04-15T14:40:43;7.50;;;5.80;;
13090;SDS011;6611;52.604;13.438;2023-04-15T14:45:44;7.20;;;5.60;;
13090;SDS011;6611;52.604;13.438;2023-04-15T14:50:48;6.60;;;5.50;;
13090;SDS011;6611;52.604;13.438;2023-04-15T14:55:49;6.83;;;5.83;;
13090;SDS011;6611;52.604;13.438;2023-04-15T15:00:51;7.33;;;6.10;;
13090;SDS011;6611;52.604;13.438;2023-04-15T15:05:54;6.90;;;6.07;;
13090;SDS011;6611;52.604;13.438;2023-04-15T15:10:56;6.70;;;6.00;;
13090;SDS011;6611;52.604;13.438;2023-04-15T15:15:58;6.57;;;5.30;;
13090;SDS011;6611;52.604;13.438;2023-04-15T15:21:01;6.87;;;5.47;;
13090;SDS011;6611;52.604;13.438;2023-04-15T15:26:03;6.60;;;5.40;;
13090;SDS011;6611;52.604;13.438;2023-04-15T15:31:05;7.03;;;5.30;;
13090;SDS011;6611;52.604;13.438;2023-04-15T15:36:08;5.97;;;4.67;;
13090;SDS011;6611;52.604;13.438;2023-04-15T15:41:10;6.47;;;5.30;;
13090;SDS011;6611;52.604;13.438;2023-04-15T15:46:12;6.53;;;5.20;;
13090;SDS011;6611;52.604;13.438;2023-04-15T15:51:15;6.83;;;4.77;;
13090;SDS011;6611;52.604;13.438;2023-04-15T15:56:17;5.30;;;4.80;;
13090;SDS011;6611;52.604;13.438;2023-04-15T16:01:19;5.23;;;4.73;;
13090;SDS011;6611;52.604;13.438;2023-04-15T16:06:22;5.70;;;5.10;;
13090;SDS011;6611;52.604;13.438;2023-04-15T16:11:24;5.73;;;5.13;;
13090;SDS011;6611;52.604;13.438;2023-04-15T16:16:25;6.10;;;4.70;;
13090;SDS011;6611;52.604;13.438;2023-04-15T16:21:30;7.13;;;5.37;;
13090;SDS011;6611;52.604;13.438;2023-04-15T16:26:31;6.20;;;4.57;;
13090;SDS011;6611;52.604;13.438;2023-04-15T16:31:33;7.87;;;5.37;;
13090;SDS011;6611;52.604;13.438;2023-04-15T16:36:38;6.67;;;5.10;;
13090;SDS011;6611;52.604;13.438;2023-04-15T16:41:40;14.67;;;9.37;;
13090;SDS011;6611;52.604;13.438;2023-04-15T16:46:42;6.83;;;5.30;;
13090;SDS011;6611;52.604;13.438;2023-04-15T16:51:45;13.90;;;10.90;;
13090;SDS011;6611;52.604;13.438;2023-04-15T16:56:47;12.30;;;8.63;;
13090;SDS011;6611;52.604;13.438;2023-04-15T17:01:48;7.77;;;6.50;;
13090;SDS011;6611;52.604;13.438;2023-04-15T17:06:51;9.97;;;8.30;;
13090;SDS011;6611;52.604;13.438;2023-04-15T17:11:53;11.37;;;9.40;;
13090;SDS011;6611;52.604;13.438;2023-04-15T17:16:55;5.57;;;4.67;;
13090;SDS011;6611;52.604;13.438;2023-04-15T17:21:58;8.20;;;6.37;;
13090;SDS011;6611;52.604;13.438;2023-04-15T17:27:00;8.30;;;6.13;;
13090;SDS011;6611;52.604;13.438;2023-04-15T17:32:01;8.27;;;7.27;;
13090;SDS011;6611;52.604;13.438;2023-04-15T17:37:05;12.73;;;10.87;;
13090;SDS011;6611;52.604;13.438;2023-04-15T17:42:07;10.30;;;9.00;;
13090;SDS011;6611;52.604;13.438;2023-04-15T17:47:10;10.13;;;8.13;;
13090;SDS011;6611;52.604;13.438;2023-04-15T17:52:13;9.83;;;7.57;;
13090;SDS011;6611;52.604;13.438;2023-04-15T17:57:15;9.83;;;7.27;;
13090;SDS011;6611;52.604;13.438;2023-04-15T18:02:17;8.50;;;7.60;;
13090;SDS011;6611;52.604;13.438;2023-04-15T18:07:20;10.17;;;8.33;;
13090;SDS011;6611;52.604;13.438;2023-04-15T18:12:21;11.47;;;8.77;;
13090;SDS011;6611;52.604;13.438;2023-04-15T18:17:23;13.40;;;9.67;;
13090;SDS011;6611;52.604;13.438;2023-04-15T18:22:26;12.07;;;8.70;;
13090;SDS011;6611;52.604;13.438;2023-04-15T18:27:28;11.80;;;9.37;;
13090;SDS011;6611;52.604;13.438;2023-04-15T18:32:30;13.90;;;10.07;;
13090;SDS011;6611;52.604;13.438;2023-04-15T18:37:33;12.83;;;10.30;;
13090;SDS011;6611;52.604;13.438;2023-04-15T18:42:35;12.13;;;9.60;;
13090;SDS011;6611;52.604;13.438;2023-04-15T18:47:36;28.70;;;19.00;;
13090;SDS011;6611;52.604;13.438;2023-04-15T18:52:40;13.73;;;11.17;;
13090;SDS011;6611;52.604;13.438;2023-04-15T18:57:41;14.67;;;11.57;;
13090;SDS011;6611;52.604;13.438;2023-04-15T19:02:44;13.33;;;10.13;;
13090;SDS011;6611;52.604;13.438;2023-04-15T19:07:47;12.57;;;9.63;;
13090;SDS011;6611;52.604;13.438;2023-04-15T19:12:50;13.63;;;10.23;;
13090;SDS011;6611;52.604;13.438;2023-04-15T19:17:53;13.80;;;10.60;;
13090;SDS011;6611;52.604;13.438;2023-04-15T19:22:56;13.53;;;10.27;;
13090;SDS011;6611;52.604;13.438;2023-04-15T19:27:57;17.17;;;11.40;;
13090;SDS011;6611;52.604;13.438;2023-04-15T19:32:59;13.77;;;10.90;;
13090;SDS011;6611;52.604;13.438;2023-04-15T19:38:03;13.93;;;11.10;;
13090;SDS011;6611;52.604;13.438;2023-04-15T19:43:05;16.03;;;11.00;;
13090;SDS011;6611;52.604;13.438;2023-04-15T19:48:06;16.57;;;12.20;;
13090;SDS011;6611;52.604;13.438;2023-04-15T19:53:09;15.80;;;11.17;;
13090;SDS011;6611;52.604;13.438;2023-04-15T19:58:11;14.00;;;10.57;;
13090;SDS011;6611;52.604;13.438;2023-04-15T20:03:13;14.93;;;10.87;;
13090;SDS011;6611;52.604;13.438;2023-04-15T20:08:16;14.30;;;10.40;;
13090;SDS011;6611;52.604;13.438;2023-04-15T20:13:18;14.23;;;10.80;;
13090;SDS011;6611;52.604;13.438;2023-04-15T20:18:20;13.67;;;10.03;;
13090;SDS011;6611;52.604;13.438;2023-04-15T20:23:23;12.90;;;9.63;;
13090;SDS011;6611;52.604;13.438;2023-04-15T20:28:25;14.67;;;10.20;;
13090;SDS011;6611;52.604;13.438;2023-04-15T20:33:27;13.60;;;10.10;;
13090;SDS011;6611;52.604;13.438;2023-04-15T20:38:30;14.93;;;10.80;;
13090;SDS011;6611;52.604;13.438;2023-04-15T20:43:31;15.00;;;10.40;;
13090;SDS011;6611;52.604;13.438;2023-04-15T20:48:33;14.67;;;10.77;;
13090;SDS011;6611;52.604;13.438;2023-04-15T20:53:36;13.00;;;10.00;;
13090;SDS011;6611;52.604;13.438;2023-04-15T20:58:38;13.83;;;10.17;;
13090;SDS011;6611;52.604;13.438;2023-04-15T21:03:40;18.03;;;10.53;;
13090;SDS011;6611;52.604;13.438;2023-04-15T21:08:43;17.67;;;11.00;;
13090;SDS011;6611;52.604;13.438;2023-04-15T21:13:45;15.07;;;10.53;;
13090;SDS011;6611;52.604;13.438;2023-04-15T21:18:47;19.20;;;11.60;;
13090;SDS011;6611;52.604;13.438;2023-04-15T21:23:50;16.27;;;11.93;;
13090;SDS011;6611;52.604;13.438;2023-04-15T21:28:51;17.40;;;12.27;;
13090;SDS011;6611;52.604;13.438;2023-04-15T21:33:53;16.70;;;11.53;;
13090;SDS011;6611;52.604;13.438;2023-04-15T21:38:56;16.30;;;10.87;;
13090;SDS011;6611;52.604;13.438;2023-04-15T21:43:58;13.63;;;10.70;;
13090;SDS011;6611;52.604;13.438;2023-04-15T21:48:59;15.40;;;11.20;;
13090;SDS011;6611;52.604;13.438;2023-04-15T21:54:02;14.77;;;11.37;;
13090;SDS011;6611;52.604;13.438;2023-04-15T21:59:04;17.40;;;12.00;;
13090;SDS011;6611;52.604;13.438;2023-04-15T22:04:06;16.37;;;11.47;;
13090;SDS011;6611;52.604;13.438;2023-04-15T22:09:11;15.37;;;11.13;;
13090;SDS011;6611;52.604;13.438;2023-04-15T22:14:13;17.60;;;12.27;;
13090;SDS011;6611;52.604;13.438;2023-04-15T22:19:14;15.63;;;11.90;;
13090;SDS011;6611;52.604;13.438;2023-04-15T22:24:17;17.43;;;12.87;;
13090;SDS011;6611;52.604;13.438;2023-04-15T22:29:19;16.57;;;12.20;;
13090;SDS011;6611;52.604;13.438;2023-04-15T22:34:21;16.83;;;12.57;;
13090;SDS011;6611;52.604;13.438;2023-04-15T22:39:24;18.93;;;12.47;;
13090;SDS011;6611;52.604;13.438;2023-04-15T22:44:26;16.37;;;11.97;;
13090;SDS011;6611;52.604;13.438;2023-04-15T22:49:28;17.97;;;12.13;;
13090;SDS011;6611;52.604;13.438;2023-04-15T22:54:31;17.67;;;13.30;;
13090;SDS011;6611;52.604;13.438;2023-04-15T22:59:33;17.30;;;12.30;;
13090;SDS011;6611;52.604;13.438;2023-04-15T23:04:34;17.60;;;12.53;;
13090;SDS011;6611;52.604;13.438;2023-04-15T23:09:37;17.20;;;12.40;;
13090;SDS011;6611;52.604;13.438;2023-04-15T23:14:39;16.07;;;11.47;;
13090;SDS011;6611;52.604;13.438;2023-04-15T23:19:41;19.77;;;12.90;;
13090;SDS011;6611;52.604;13.438;2023-04-15T23:24:44;18.27;;;12.23;;
13090;SDS011;6611;52.604;13.438;2023-04-15T23:29:46;18.47;;;12.63;;
13090;SDS011;6611;52.604;13.438;2023-04-15T23:34:47;15.03;;;11.47;;
13090;SDS011;6611;52.604;13.438;2023-04-15T23:39:52;18.47;;;12.97;;
13090;SDS011;6611;52.604;13.438;2023-04-15T23:44:54;18.47;;;11.97;;
13090;SDS011;6611;52.604;13.438;2023-04-15T23:49:56;19.40;;;12.43;;
13090;SDS011;6611;52.604;13.438;2023-04-15T23:54:59;18.37;;;13.40;;
